Terminal Aerodrome Forecast
Issued by NWS

Home | Current Version | Previous Version | Graphics & Text | Print | Product List | Glossary On
Versions: 1 2 3 4 5 6 7 8 9 10 11 12 13 14 15 16 17 18 19 20 21 22 23 24 25 26 27 28 29 30 31 32 33 34
400
FTUS43 KGRB 281735
TAFATW
TAF
KATW 281735Z 2818/2918 24009G14KT P6SM BKN030
      TEMPO 2818/2821 SCT035 SCT100
     FM282100 27007KT P6SM SCT060 BKN100
     FM290200 34004KT P6SM BKN060
     FM290500 36008KT P6SM BKN060
     FM290700 01009KT P6SM BKN080 BKN200
     FM291500 04014KT P6SM FEW060 BKN200=

USA.gov is the U.S. government's official web portal to all federal, state and local government web resources and services.